createdAt,value
2022-11-24T05:00:30.908Z,998.67
2022-11-24T05:01:30.890Z,998.64
2022-11-24T05:02:30.842Z,998.65
2022-11-24T05:03:30.882Z,998.65
2022-11-24T05:04:30.936Z,998.65
2022-11-24T05:05:30.804Z,998.65
2022-11-24T05:06:30.802Z,998.64
2022-11-24T05:07:30.827Z,998.66
2022-11-24T05:08:30.768Z,998.63
2022-11-24T05:09:54.979Z,998.60
2022-11-24T05:10:31.742Z,998.66
2022-11-24T05:11:35.766Z,998.64
2022-11-24T05:12:30.719Z,998.66
2022-11-24T05:13:30.710Z,998.66
2022-11-24T05:14:30.698Z,998.68
2022-11-24T05:15:30.685Z,998.72
2022-11-24T05:16:30.828Z,998.67
2022-11-24T05:17:30.669Z,998.71
2022-11-24T05:18:30.670Z,998.68
2022-11-24T05:19:32.491Z,998.73
2022-11-24T05:20:30.630Z,998.68
2022-11-24T05:21:30.625Z,998.71
2022-11-24T05:22:35.647Z,998.75
2022-11-24T05:23:30.594Z,998.74
2022-11-24T05:24:30.718Z,998.78
2022-11-24T05:25:30.614Z,998.81
2022-11-24T05:26:30.573Z,998.81
2022-11-24T05:27:30.547Z,998.85
2022-11-24T05:28:30.547Z,998.84
2022-11-24T05:29:30.525Z,998.85
2022-11-24T05:30:30.517Z,998.89
2022-11-24T05:31:30.582Z,998.89
2022-11-24T05:32:30.516Z,998.93
2022-11-24T05:33:35.502Z,998.87
2022-11-24T05:34:30.470Z,998.89
2022-11-24T05:35:30.457Z,998.88
2022-11-24T05:36:30.461Z,998.89
2022-11-24T05:37:30.432Z,998.85
2022-11-24T05:38:30.423Z,998.91
2022-11-24T05:39:30.411Z,998.94
2022-11-24T05:40:30.413Z,998.98
2022-11-24T05:41:30.403Z,998.96
2022-11-24T05:42:30.381Z,998.90
2022-11-24T05:43:30.364Z,998.93
2022-11-24T05:44:35.838Z,998.95
2022-11-24T05:45:30.342Z,998.95
2022-11-24T05:46:30.386Z,998.98
2022-11-24T05:47:30.319Z,999.04
2022-11-24T05:48:30.334Z,999.04
2022-11-24T05:49:30.295Z,999.05
2022-11-24T05:50:30.286Z,999.00
2022-11-24T05:51:30.272Z,999.01
2022-11-24T05:52:30.276Z,999.04
2022-11-24T05:53:30.253Z,999.05
2022-11-24T05:54:30.240Z,999.07
2022-11-24T05:55:35.250Z,999.02
2022-11-24T05:56:30.256Z,998.98
2022-11-24T05:57:30.214Z,998.98
2022-11-24T05:58:30.202Z,999.04
2022-11-24T05:59:30.182Z,998.96
2022-11-24T06:00:30.172Z,999.05
2022-11-24T06:01:30.243Z,999.05
2022-11-24T06:02:30.299Z,999.08
2022-11-24T06:03:30.137Z,999.01
2022-11-24T06:04:30.158Z,998.99
2022-11-24T06:05:30.117Z,999.03
2022-11-24T06:06:35.137Z,999.02
2022-11-24T06:07:30.238Z,999.04
2022-11-24T06:08:31.408Z,999.08
2022-11-24T06:09:30.067Z,999.02
2022-11-24T06:10:30.140Z,999.03
2022-11-24T06:11:30.042Z,999.00
2022-11-24T06:12:30.047Z,998.99
2022-11-24T06:13:30.102Z,999.04
2022-11-24T06:14:30.013Z,999.08
2022-11-24T06:15:30.000Z,999.11
2022-11-24T06:16:30.103Z,999.18
2022-11-24T06:17:35.009Z,999.25
2022-11-24T06:18:29.965Z,999.21
2022-11-24T06:19:29.970Z,999.20
2022-11-24T06:20:32.948Z,999.22
2022-11-24T06:21:29.936Z,999.28
2022-11-24T06:22:29.950Z,999.31
2022-11-24T06:23:29.905Z,999.30
2022-11-24T06:24:29.897Z,999.31
2022-11-24T06:25:29.883Z,999.30
2022-11-24T06:26:29.873Z,999.29
2022-11-24T06:27:29.889Z,999.32
2022-11-24T06:28:34.874Z,999.41
2022-11-24T06:29:29.838Z,999.38
2022-11-24T06:30:29.929Z,999.39
2022-11-24T06:31:29.849Z,999.32
2022-11-24T06:32:29.819Z,999.36
2022-11-24T06:33:29.794Z,999.32
2022-11-24T06:34:29.785Z,999.38
2022-11-24T06:35:29.770Z,999.38
2022-11-24T06:36:29.787Z,999.39
2022-11-24T06:37:29.759Z,999.38
2022-11-24T06:38:29.742Z,999.46
2022-11-24T06:39:34.746Z,999.51
2022-11-24T06:40:29.715Z,999.47
2022-11-24T06:41:29.724Z,999.40
2022-11-24T06:42:29.735Z,999.41
2022-11-24T06:43:29.778Z,999.33
2022-11-24T06:44:29.725Z,999.38
2022-11-24T06:45:29.760Z,999.40
2022-11-24T06:46:29.694Z,999.46
2022-11-24T06:47:29.671Z,999.48
2022-11-24T06:48:29.681Z,999.43
2022-11-24T06:49:29.615Z,999.40
2022-11-24T06:50:34.621Z,999.39
2022-11-24T06:51:29.588Z,999.40
2022-11-24T06:52:29.605Z,999.44
2022-11-24T06:53:29.563Z,999.39
2022-11-24T06:54:29.557Z,999.46
2022-11-24T06:55:29.542Z,999.52
2022-11-24T06:56:29.542Z,999.48
2022-11-24T06:57:29.535Z,999.51
2022-11-24T06:58:29.507Z,999.48
2022-11-24T06:59:29.497Z,999.42
2022-11-24T07:00:29.645Z,999.51
2022-11-24T07:01:34.590Z,999.54
2022-11-24T07:02:29.462Z,999.60
2022-11-24T07:03:29.622Z,999.62
2022-11-24T07:04:29.442Z,999.58
2022-11-24T07:05:29.436Z,999.63
2022-11-24T07:06:29.421Z,999.64
2022-11-24T07:07:29.442Z,999.63
2022-11-24T07:08:29.421Z,999.64
2022-11-24T07:09:29.388Z,999.64
2022-11-24T07:10:29.551Z,999.69
2022-11-24T07:11:29.372Z,999.69
2022-11-24T07:12:34.381Z,999.74
2022-11-24T07:13:29.346Z,999.75
2022-11-24T07:14:29.328Z,999.73
2022-11-24T07:15:29.465Z,999.74
2022-11-24T07:16:29.390Z,999.80
2022-11-24T07:17:29.301Z,999.82
2022-11-24T07:18:29.303Z,999.75
2022-11-24T07:19:29.277Z,999.83
2022-11-24T07:20:29.320Z,999.80
2022-11-24T07:21:29.263Z,999.80
2022-11-24T07:22:29.234Z,999.87
2022-11-24T07:23:34.280Z,999.89
2022-11-24T07:24:29.217Z,999.90
2022-11-24T07:25:29.204Z,999.92
2022-11-24T07:26:29.188Z,999.97
2022-11-24T07:27:29.177Z,1000.00
2022-11-24T07:28:29.189Z,999.98
2022-11-24T07:29:29.189Z,1000.06
2022-11-24T07:30:29.242Z,1000.02
2022-11-24T07:31:29.197Z,1000.04
2022-11-24T07:32:29.123Z,1000.04
2022-11-24T07:33:29.121Z,1000.06
2022-11-24T07:34:34.544Z,1000.08
2022-11-24T07:35:29.086Z,1000.08
2022-11-24T07:36:29.075Z,1000.11
2022-11-24T07:37:31.571Z,1000.11
2022-11-24T07:38:29.062Z,1000.11
2022-11-24T07:39:29.069Z,1000.16
2022-11-24T07:40:29.031Z,1000.15
2022-11-24T07:41:29.017Z,1000.18
2022-11-24T07:42:29.011Z,1000.21
2022-11-24T07:43:29.007Z,1000.18
2022-11-24T07:44:28.993Z,1000.20
2022-11-24T07:45:34.029Z,1000.23
2022-11-24T07:46:29.036Z,1000.19
2022-11-24T07:47:28.950Z,1000.24
2022-11-24T07:48:28.977Z,1000.25
2022-11-24T07:49:28.930Z,1000.22
2022-11-24T07:50:28.941Z,1000.21
2022-11-24T07:51:28.904Z,1000.27
2022-11-24T07:52:28.898Z,1000.25
2022-11-24T07:53:28.896Z,1000.26
2022-11-24T07:54:28.868Z,1000.29
2022-11-24T07:55:28.892Z,1000.34
2022-11-24T07:56:33.874Z,1000.33
2022-11-24T07:57:28.840Z,1000.39
2022-11-24T07:58:32.396Z,1000.38
2022-11-24T07:59:28.816Z,1000.38
2022-11-24T08:00:28.808Z,1000.35
2022-11-24T08:01:28.873Z,1000.41
2022-11-24T08:02:28.780Z,1000.41
2022-11-24T08:03:28.849Z,1000.45
2022-11-24T08:04:28.770Z,1000.43
2022-11-24T08:05:28.744Z,1000.43
2022-11-24T08:06:36.266Z,1000.43
2022-11-24T08:07:34.802Z,1000.49
2022-11-24T08:08:28.709Z,1000.41
2022-11-24T08:09:28.725Z,1000.40
2022-11-24T08:10:28.689Z,1000.45
2022-11-24T08:11:28.702Z,1000.46
2022-11-24T08:12:28.666Z,1000.44
2022-11-24T08:13:28.657Z,1000.54
2022-11-24T08:14:28.664Z,1000.47
2022-11-24T08:15:28.632Z,1000.53
2022-11-24T08:16:28.716Z,1000.55
2022-11-24T08:17:28.610Z,1000.54
2022-11-24T08:18:33.617Z,1000.54
2022-11-24T08:19:28.605Z,1000.56
2022-11-24T08:20:28.573Z,1000.53
2022-11-24T08:21:28.566Z,1000.53
2022-11-24T08:22:28.550Z,1000.61
2022-11-24T08:23:28.562Z,1000.58
2022-11-24T08:24:28.537Z,1000.52
2022-11-24T08:25:28.517Z,1000.56
2022-11-24T08:26:28.510Z,1000.54
2022-11-24T08:27:28.519Z,1000.58
2022-11-24T08:28:28.482Z,1000.67
2022-11-24T08:29:33.503Z,1000.64
2022-11-24T08:30:28.667Z,1000.70
2022-11-24T08:31:28.548Z,1000.72
2022-11-24T08:32:28.505Z,1000.73
2022-11-24T08:33:28.427Z,1000.72
2022-11-24T08:34:28.422Z,1000.74
2022-11-24T08:35:28.407Z,1000.75
2022-11-24T08:36:28.390Z,1000.80
2022-11-24T08:37:28.380Z,1000.80
2022-11-24T08:38:28.366Z,1000.80
2022-11-24T08:39:28.408Z,1000.82
2022-11-24T08:40:33.366Z,1000.79
2022-11-24T08:41:28.334Z,1000.84
2022-11-24T08:42:28.322Z,1000.84
2022-11-24T08:43:28.357Z,1000.82
2022-11-24T08:44:28.312Z,1000.87
2022-11-24T08:45:30.678Z,1000.93
2022-11-24T08:46:28.374Z,1000.94
2022-11-24T08:47:28.271Z,1000.99
2022-11-24T08:48:28.254Z,1001.04
2022-11-24T08:49:28.258Z,1001.08
2022-11-24T08:50:28.240Z,1001.11
2022-11-24T08:51:33.247Z,1001.08
2022-11-24T08:52:28.211Z,1001.13
2022-11-24T08:53:28.201Z,1001.11
2022-11-24T08:54:28.200Z,1001.09
2022-11-24T08:55:28.187Z,1001.11
2022-11-24T08:56:28.188Z,1001.10
2022-11-24T08:57:28.157Z,1001.12
2022-11-24T08:58:28.158Z,1001.24
2022-11-24T08:59:28.230Z,1001.20
2022-11-24T09:00:28.119Z,1001.19
2022-11-24T09:01:28.238Z,1001.23
2022-11-24T09:02:33.124Z,1001.27
2022-11-24T09:03:28.087Z,1001.29
2022-11-24T09:04:28.152Z,1001.35
2022-11-24T09:05:51.141Z,1001.36
2022-11-24T09:06:29.050Z,1001.30
2022-11-24T09:07:28.074Z,1001.24
2022-11-24T09:08:28.025Z,1001.17
2022-11-24T09:09:28.027Z,1001.14
2022-11-24T09:10:28.017Z,1001.16
2022-11-24T09:11:27.994Z,1001.22
2022-11-24T09:12:27.982Z,1001.19
2022-11-24T09:13:32.996Z,1001.18
2022-11-24T09:14:27.958Z,1001.15
2022-11-24T09:15:27.979Z,1001.14
2022-11-24T09:16:28.055Z,1001.18
2022-11-24T09:17:27.935Z,1001.09
2022-11-24T09:18:30.381Z,1001.09
2022-11-24T09:19:27.913Z,1001.18
2022-11-24T09:20:27.899Z,1001.22
2022-11-24T09:21:27.882Z,1001.21
2022-11-24T09:22:27.871Z,1001.26
2022-11-24T09:23:27.858Z,1001.29
2022-11-24T09:24:32.866Z,1001.24
2022-11-24T09:25:27.857Z,1001.38
2022-11-24T09:26:27.823Z,1001.40
2022-11-24T09:27:27.814Z,1001.39
2022-11-24T09:28:27.811Z,1001.40
2022-11-24T09:29:27.790Z,1001.47
2022-11-24T09:30:27.788Z,1001.48
2022-11-24T09:31:27.884Z,1001.44
2022-11-24T09:32:27.759Z,1001.52
2022-11-24T09:33:27.746Z,1001.50
2022-11-24T09:34:27.731Z,1001.45
2022-11-24T09:35:32.762Z,1001.47
2022-11-24T09:36:27.733Z,1001.51
2022-11-24T09:37:32.631Z,1001.53
2022-11-24T09:38:28.686Z,1001.57
2022-11-24T09:39:27.677Z,1001.51
2022-11-24T09:40:27.675Z,1001.50
2022-11-24T09:41:27.657Z,1001.55
2022-11-24T09:42:27.640Z,1001.57
2022-11-24T09:43:27.668Z,1001.56
2022-11-24T09:44:27.621Z,1001.63
2022-11-24T09:45:57.022Z,1001.61
2022-11-24T09:46:33.717Z,1001.59
2022-11-24T09:47:27.585Z,1001.66
2022-11-24T09:48:27.577Z,1001.57
2022-11-24T09:49:27.573Z,1001.63
2022-11-24T09:50:27.561Z,1001.68
2022-11-24T09:51:27.539Z,1001.63
2022-11-24T09:52:27.531Z,1001.70
2022-11-24T09:53:27.517Z,1001.66
2022-11-24T09:54:27.504Z,1001.77
2022-11-24T09:55:27.520Z,1001.68
2022-11-24T09:56:27.497Z,1001.68
2022-11-24T09:57:37.064Z,1001.73
2022-11-24T09:58:28.456Z,1001.81
2022-11-24T09:59:27.459Z,1001.78
2022-11-24T10:00:27.454Z,1001.77
2022-11-24T10:01:27.445Z,1001.77
2022-11-24T10:02:27.437Z,1001.79
2022-11-24T10:03:27.419Z,1001.72
2022-11-24T10:04:27.447Z,1001.79
2022-11-24T10:05:27.383Z,1001.81
2022-11-24T10:06:27.384Z,1001.93
2022-11-24T10:07:27.381Z,1001.89
2022-11-24T10:08:32.366Z,1001.89
2022-11-24T10:09:27.333Z,1001.93
2022-11-24T10:10:27.320Z,1001.87
2022-11-24T10:11:27.326Z,1001.87
2022-11-24T10:12:27.299Z,1001.87
2022-11-24T10:13:27.292Z,1001.84
2022-11-24T10:14:27.285Z,1001.80
2022-11-24T10:15:27.270Z,1001.82
2022-11-24T10:16:27.326Z,1001.83
2022-11-24T10:17:27.366Z,1001.82
2022-11-24T10:18:27.250Z,1001.86
2022-11-24T10:19:37.056Z,1001.93
2022-11-24T10:20:28.208Z,1001.87
2022-11-24T10:21:27.212Z,1001.89
2022-11-24T10:22:27.190Z,1001.92
2022-11-24T10:23:27.175Z,1001.94
2022-11-24T10:24:27.185Z,1001.96
2022-11-24T10:25:27.158Z,1002.04
2022-11-24T10:26:27.156Z,1001.92
2022-11-24T10:27:27.131Z,1001.95
2022-11-24T10:28:27.123Z,1001.95
2022-11-24T10:29:27.108Z,1001.93
2022-11-24T10:30:32.117Z,1001.93
2022-11-24T10:31:27.111Z,1001.96
2022-11-24T10:32:27.075Z,1001.99
2022-11-24T10:33:30.630Z,1001.95
2022-11-24T10:34:27.073Z,1001.91
2022-11-24T10:35:27.039Z,1001.90
2022-11-24T10:36:27.052Z,1001.91
2022-11-24T10:37:27.019Z,1001.93
2022-11-24T10:38:27.010Z,1001.87
2022-11-24T10:39:26.993Z,1001.94
2022-11-24T10:40:49.115Z,1001.94
2022-11-24T10:41:33.005Z,1001.90
2022-11-24T10:42:26.961Z,1001.93
2022-11-24T10:43:26.959Z,1001.85
2022-11-24T10:44:26.936Z,1001.93
2022-11-24T10:45:26.931Z,1001.94
2022-11-24T10:46:27.051Z,1001.89
2022-11-24T10:47:26.914Z,1001.89
2022-11-24T10:48:26.889Z,1001.89
2022-11-24T10:49:26.880Z,1001.88
2022-11-24T10:50:26.898Z,1001.94
2022-11-24T10:51:26.857Z,1001.91
2022-11-24T10:52:31.878Z,1001.93
2022-11-24T10:53:26.839Z,1001.94
2022-11-24T10:54:26.828Z,1001.98
2022-11-24T10:55:26.818Z,1002.00
2022-11-24T10:56:26.803Z,1001.96
2022-11-24T10:57:26.814Z,1001.95
2022-11-24T10:58:26.776Z,1001.89
2022-11-24T10:59:26.771Z,1001.81
2022-11-24T11:00:26.756Z,1001.92
2022-11-24T11:01:26.794Z,1001.92
2022-11-24T11:02:26.819Z,1001.86
2022-11-24T11:03:31.741Z,1001.91
2022-11-24T11:04:26.718Z,1001.83
2022-11-24T11:05:26.702Z,1001.93
2022-11-24T11:06:26.712Z,1001.84
2022-11-24T11:07:26.773Z,1001.87
2022-11-24T11:08:26.666Z,1001.91
2022-11-24T11:09:26.653Z,1001.94
2022-11-24T11:10:26.649Z,1001.93
2022-11-24T11:11:26.637Z,1002.04
2022-11-24T11:13:27.622Z,1002.01
2022-11-24T11:14:31.615Z,1002.00
2022-11-24T11:15:26.860Z,1002.04
2022-11-24T11:16:26.666Z,1002.01
2022-11-24T11:17:26.571Z,1002.03
2022-11-24T11:18:26.560Z,1002.03
2022-11-24T11:19:53.215Z,1002.07
2022-11-24T11:20:27.527Z,1002.09
2022-11-24T11:21:26.517Z,1002.00
2022-11-24T11:22:26.534Z,1002.03
2022-11-24T11:23:26.511Z,1002.02
2022-11-24T11:24:26.488Z,1002.05
2022-11-24T11:25:31.495Z,1002.05
2022-11-24T11:26:26.465Z,1002.02
2022-11-24T11:27:26.454Z,1002.07
2022-11-24T11:28:26.487Z,1002.14
2022-11-24T11:31:27.410Z,1002.15
2022-11-24T11:34:30.340Z,1002.24
2022-11-24T11:35:26.363Z,1002.17
2022-11-24T11:36:31.378Z,1002.19
2022-11-24T11:37:26.339Z,1002.21
2022-11-24T11:38:26.362Z,1002.23
2022-11-24T11:39:26.315Z,1002.25
2022-11-24T11:40:26.310Z,1002.22
2022-11-24T11:41:26.292Z,1002.27
2022-11-24T11:43:00.024Z,1002.34
2022-11-24T11:43:27.291Z,1002.34
2022-11-24T11:44:26.267Z,1002.29
2022-11-24T11:45:26.269Z,1002.22
2022-11-24T11:46:26.307Z,1002.27
2022-11-24T11:47:31.247Z,1002.21
2022-11-24T11:48:26.223Z,1002.26
2022-11-24T11:49:26.213Z,1002.22
2022-11-24T11:50:26.216Z,1002.24
2022-11-24T11:51:26.288Z,1002.24
2022-11-24T11:52:26.209Z,1002.25
2022-11-24T11:53:26.167Z,1002.31
2022-11-24T11:54:26.175Z,1002.17
2022-11-24T11:55:26.134Z,1002.22
2022-11-24T11:56:26.130Z,1002.19
2022-11-24T11:57:26.113Z,1002.28
2022-11-24T11:58:31.136Z,1002.27
2022-11-24T11:59:26.087Z,1002.28
2022-11-24T12:00:26.077Z,1002.32
2022-11-24T12:01:26.067Z,1002.25
2022-11-24T12:02:26.192Z,1002.23
2022-11-24T12:03:26.240Z,1002.25
2022-11-24T12:04:26.032Z,1002.25
2022-11-24T12:05:26.022Z,1002.22
2022-11-24T12:06:26.011Z,1002.28
2022-11-24T12:07:26.073Z,1002.31
2022-11-24T12:08:25.997Z,1002.26
2022-11-24T12:09:31.022Z,1002.37
2022-11-24T12:10:25.966Z,1002.37
2022-11-24T12:11:25.956Z,1002.35
2022-11-24T12:12:25.953Z,1002.31
2022-11-24T12:13:25.941Z,1002.34
2022-11-24T12:14:25.920Z,1002.33
2022-11-24T12:15:25.906Z,1002.37
2022-11-24T12:16:25.962Z,1002.35
2022-11-24T12:17:25.886Z,1002.38
2022-11-24T12:18:55.188Z,1002.37
2022-11-24T12:19:26.861Z,1002.42
2022-11-24T12:20:30.874Z,1002.40
2022-11-24T12:21:26.884Z,1002.37
2022-11-24T12:22:25.838Z,1002.39
2022-11-24T12:23:25.844Z,1002.40
2022-11-24T12:24:25.866Z,1002.38
2022-11-24T12:25:25.820Z,1002.41
2022-11-24T12:26:25.789Z,1002.38
2022-11-24T12:27:25.770Z,1002.36
2022-11-24T12:28:25.775Z,1002.37
2022-11-24T12:29:25.759Z,1002.39
2022-11-24T12:30:25.758Z,1002.46
2022-11-24T12:31:30.810Z,1002.45
2022-11-24T12:32:25.718Z,1002.50
2022-11-24T12:33:25.716Z,1002.46
2022-11-24T12:34:25.700Z,1002.52
2022-11-24T12:35:25.680Z,1002.49
2022-11-24T12:36:25.672Z,1002.47
2022-11-24T12:37:25.666Z,1002.57
2022-11-24T12:38:25.656Z,1002.53
2022-11-24T12:39:25.647Z,1002.54
2022-11-24T12:40:25.632Z,1002.58
2022-11-24T12:41:41.171Z,1002.54
2022-11-24T12:42:31.624Z,1002.57
2022-11-24T12:43:25.590Z,1002.56
2022-11-24T12:44:25.610Z,1002.59
2022-11-24T12:45:25.573Z,1002.58
2022-11-24T12:46:25.592Z,1002.58
2022-11-24T12:47:25.546Z,1002.62
2022-11-24T12:48:25.539Z,1002.54
2022-11-24T12:49:25.539Z,1002.53
2022-11-24T12:50:25.545Z,1002.48
2022-11-24T12:51:25.511Z,1002.55
2022-11-24T12:52:25.493Z,1002.51
2022-11-24T12:53:30.505Z,1002.58
2022-11-24T12:54:25.491Z,1002.57
2022-11-24T12:55:25.470Z,1002.59
2022-11-24T12:56:25.450Z,1002.62
2022-11-24T12:57:25.454Z,1002.67
2022-11-24T12:58:25.424Z,1002.62
2022-11-24T12:59:25.427Z,1002.60
2022-11-24T13:00:25.406Z,1002.65
2022-11-24T13:01:25.553Z,1002.67
2022-11-24T13:02:25.498Z,1002.54
2022-11-24T13:03:25.368Z,1002.56
2022-11-24T13:04:30.416Z,1002.58
2022-11-24T13:05:25.352Z,1002.53
2022-11-24T13:06:25.348Z,1002.59
2022-11-24T13:07:25.388Z,1002.51
2022-11-24T13:08:25.320Z,1002.59
2022-11-24T13:09:25.316Z,1002.64
2022-11-24T13:10:55.344Z,1002.60
2022-11-24T13:11:26.281Z,1002.59
2022-11-24T13:12:25.273Z,1002.63
2022-11-24T13:13:25.283Z,1002.58
2022-11-24T13:14:25.256Z,1002.55
2022-11-24T13:15:45.654Z,1002.58
2022-11-24T13:16:59.476Z,1002.60
2022-11-24T13:17:33.733Z,1002.56
2022-11-24T13:18:26.264Z,1002.56
2022-11-24T13:19:25.202Z,1002.61
2022-11-24T13:20:25.182Z,1002.65
2022-11-24T13:21:25.171Z,1002.61
2022-11-24T13:22:25.186Z,1002.63
2022-11-24T13:23:25.145Z,1002.61
2022-11-24T13:24:25.268Z,1002.60
2022-11-24T13:25:25.129Z,1002.61
2022-11-24T13:26:30.136Z,1002.65
2022-11-24T13:27:25.102Z,1002.70
2022-11-24T13:28:53.949Z,1002.65
2022-11-24T13:29:26.116Z,1002.67
2022-11-24T13:30:25.070Z,1002.67
2022-11-24T13:31:25.174Z,1002.67
2022-11-24T13:32:25.049Z,1002.66
2022-11-24T13:33:27.080Z,1002.64
2022-11-24T13:34:25.024Z,1002.66
2022-11-24T13:35:25.039Z,1002.65
2022-11-24T13:36:25.004Z,1002.69
2022-11-24T13:37:34.753Z,1002.75
2022-11-24T13:38:25.977Z,1002.78
2022-11-24T13:39:24.966Z,1002.74
2022-11-24T13:40:24.985Z,1002.75
2022-11-24T13:41:28.557Z,1002.75
2022-11-24T13:42:41.653Z,1002.71
2022-11-24T13:43:25.919Z,1002.78
2022-11-24T13:44:24.912Z,1002.70
2022-11-24T13:45:24.930Z,1002.70
2022-11-24T13:46:24.935Z,1002.70
2022-11-24T13:47:24.880Z,1002.67
2022-11-24T13:48:29.930Z,1002.65
2022-11-24T13:49:24.859Z,1002.75
2022-11-24T13:50:24.880Z,1002.63
2022-11-24T13:51:24.841Z,1002.66
2022-11-24T13:52:24.820Z,1002.67
2022-11-24T13:53:24.807Z,1002.64
2022-11-24T13:54:24.801Z,1002.63
2022-11-24T13:55:24.796Z,1002.70
2022-11-24T13:56:24.776Z,1002.58
2022-11-24T13:57:24.766Z,1002.68
2022-11-24T13:58:24.771Z,1002.72
2022-11-24T13:59:29.783Z,1002.65
2022-11-24T14:00:24.740Z,1002.64
2022-11-24T14:01:25.029Z,1002.64
2022-11-24T14:02:24.708Z,1002.65
2022-11-24T14:03:24.872Z,1002.65
2022-11-24T14:04:43.417Z,1002.65
2022-11-24T14:05:25.687Z,1002.72
2022-11-24T14:06:24.664Z,1002.63
2022-11-24T14:07:24.707Z,1002.65
2022-11-24T14:08:24.652Z,1002.62
2022-11-24T14:09:24.634Z,1002.57
2022-11-24T14:10:29.667Z,1002.61
2022-11-24T14:11:24.605Z,1002.60
2022-11-24T14:12:24.603Z,1002.67
2022-11-24T14:13:24.585Z,1002.64
2022-11-24T14:14:24.573Z,1002.60
2022-11-24T14:15:24.571Z,1002.65
2022-11-24T14:16:24.634Z,1002.67
2022-11-24T14:17:24.567Z,1002.75
2022-11-24T14:18:24.529Z,1002.60
2022-11-24T14:19:27.845Z,1002.61
2022-11-24T14:20:24.526Z,1002.56
2022-11-24T14:21:29.535Z,1002.60
2022-11-24T14:22:24.485Z,1002.57
2022-11-24T14:23:24.477Z,1002.63
2022-11-24T14:24:24.459Z,1002.60
2022-11-24T14:25:24.458Z,1002.59
2022-11-24T14:26:24.450Z,1002.66
2022-11-24T14:27:24.424Z,1002.64
2022-11-24T14:28:24.472Z,1002.62
2022-11-24T14:29:24.401Z,1002.61
2022-11-24T14:30:24.412Z,1002.63
2022-11-24T14:31:24.433Z,1002.66
2022-11-24T14:32:29.412Z,1002.65
2022-11-24T14:33:24.375Z,1002.63
2022-11-24T14:34:24.345Z,1002.67
2022-11-24T14:35:24.406Z,1002.67
2022-11-24T14:36:24.328Z,1002.69
2022-11-24T14:37:24.313Z,1002.63
2022-11-24T14:38:24.306Z,1002.67
2022-11-24T14:39:24.306Z,1002.62
2022-11-24T14:40:24.318Z,1002.63
2022-11-24T14:41:24.268Z,1002.63
2022-11-24T14:42:24.260Z,1002.65
2022-11-24T14:43:29.273Z,1002.69
2022-11-24T14:44:24.232Z,1002.68
2022-11-24T14:45:24.223Z,1002.64
2022-11-24T14:46:24.324Z,1002.71
2022-11-24T14:47:30.116Z,1002.75
2022-11-24T14:48:25.228Z,1002.63
2022-11-24T14:49:24.184Z,1002.70
2022-11-24T14:50:24.282Z,1002.74
2022-11-24T14:51:24.169Z,1002.68
2022-11-24T14:52:24.142Z,1002.71
2022-11-24T14:53:26.163Z,1002.77
2022-11-24T14:54:29.155Z,1002.75
2022-11-24T14:55:24.123Z,1002.82
2022-11-24T14:56:24.106Z,1002.83
2022-11-24T14:57:24.167Z,1002.83
2022-11-24T14:58:24.073Z,1002.90
2022-11-24T14:59:24.063Z,1002.84
2022-11-24T15:00:24.051Z,1002.90
2022-11-24T15:01:24.092Z,1002.90
2022-11-24T15:02:24.108Z,1002.93
2022-11-24T15:03:24.018Z,1002.95
2022-11-24T15:05:01.674Z,1002.90
2022-11-24T15:05:30.014Z,1002.89
2022-11-24T15:06:23.992Z,1002.88
2022-11-24T15:07:24.183Z,1002.91
2022-11-24T15:08:24.036Z,1002.98
2022-11-24T15:09:23.957Z,1002.91
2022-11-24T15:10:26.664Z,1002.93
2022-11-24T15:11:24.933Z,1002.95
2022-11-24T15:12:23.913Z,1002.96
2022-11-24T15:13:23.900Z,1002.96
2022-11-24T15:14:23.892Z,1002.88
2022-11-24T15:15:23.883Z,1003.02
2022-11-24T15:16:28.951Z,1002.95
2022-11-24T15:17:23.865Z,1002.95
2022-11-24T15:18:23.846Z,1002.92
2022-11-24T15:19:23.833Z,1002.90
2022-11-24T15:20:23.843Z,1002.90
2022-11-24T15:21:23.820Z,1002.95
2022-11-24T15:22:23.801Z,1003.02
2022-11-24T15:23:23.803Z,1002.91
2022-11-24T15:24:23.778Z,1002.95
2022-11-24T15:25:23.770Z,1002.95
2022-11-24T15:26:28.845Z,1002.95
2022-11-24T15:27:29.813Z,1003.05
2022-11-24T15:28:23.731Z,1002.96
2022-11-24T15:29:23.718Z,1003.03
2022-11-24T15:30:23.742Z,1003.01
2022-11-24T15:31:23.795Z,1003.03
2022-11-24T15:32:23.688Z,1003.11
2022-11-24T15:33:23.745Z,1003.06
2022-11-24T15:34:23.666Z,1003.11
2022-11-24T15:35:23.650Z,1003.04
2022-11-24T15:36:23.674Z,1002.96
2022-11-24T15:37:23.627Z,1003.03
2022-11-24T15:38:28.643Z,1003.02
2022-11-24T15:39:23.607Z,1002.96
2022-11-24T15:40:23.600Z,1002.97
2022-11-24T15:41:23.612Z,1002.96
2022-11-24T15:42:23.572Z,1003.01
2022-11-24T15:43:23.560Z,1003.04
2022-11-24T15:44:23.548Z,1003.01
2022-11-24T15:45:23.556Z,1003.01
2022-11-24T15:46:23.592Z,1003.03
2022-11-24T15:47:23.515Z,1002.98
2022-11-24T15:48:23.507Z,1003.01
2022-11-24T15:49:28.513Z,1002.97
2022-11-24T15:50:23.488Z,1003.00
2022-11-24T15:51:23.470Z,1002.97
2022-11-24T15:52:23.491Z,1003.00
2022-11-24T15:53:23.445Z,1002.96
2022-11-24T15:54:23.436Z,1003.00
2022-11-24T15:55:23.425Z,1002.97
2022-11-24T15:56:23.418Z,1003.05
2022-11-24T15:57:23.412Z,1003.02
2022-11-24T15:58:23.391Z,1003.01
2022-11-24T15:59:23.379Z,1003.07
2022-11-24T16:00:28.393Z,1003.10
2022-11-24T16:01:23.449Z,1003.12
2022-11-24T16:02:23.379Z,1003.14
2022-11-24T16:03:46.423Z,1003.10
2022-11-24T16:04:24.323Z,1003.14
2022-11-24T16:05:23.310Z,1003.13
2022-11-24T16:06:25.139Z,1003.16
2022-11-24T16:07:23.332Z,1003.22
2022-11-24T16:08:23.308Z,1003.17
2022-11-24T16:09:23.268Z,1003.22
2022-11-24T16:10:23.254Z,1003.21
2022-11-24T16:11:28.270Z,1003.18
2022-11-24T16:12:23.251Z,1003.18
2022-11-24T16:13:23.224Z,1003.26
2022-11-24T16:14:23.279Z,1003.24
2022-11-24T16:15:23.228Z,1003.29
2022-11-24T16:16:23.380Z,1003.34
2022-11-24T16:17:23.185Z,1003.36
2022-11-24T16:18:23.164Z,1003.36
2022-11-24T16:19:23.171Z,1003.34
2022-11-24T16:20:23.146Z,1003.30
2022-11-24T16:21:23.156Z,1003.31
2022-11-24T16:22:28.149Z,1003.29
2022-11-24T16:23:23.113Z,1003.35
2022-11-24T16:24:23.127Z,1003.34
2022-11-24T16:25:23.090Z,1003.33
2022-11-24T16:26:23.093Z,1003.32
2022-11-24T16:27:23.777Z,1003.35
2022-11-24T16:28:23.051Z,1003.35
2022-11-24T16:29:23.055Z,1003.30
2022-11-24T16:30:23.057Z,1003.36
2022-11-24T16:31:23.347Z,1003.33
2022-11-24T16:32:23.024Z,1003.34
2022-11-24T16:33:28.021Z,1003.38
2022-11-24T16:34:22.981Z,1003.37
2022-11-24T16:35:22.984Z,1003.42
2022-11-24T16:36:22.961Z,1003.29
2022-11-24T16:37:22.966Z,1003.35
2022-11-24T16:38:22.953Z,1003.27
2022-11-24T16:39:23.016Z,1003.31
2022-11-24T16:40:22.933Z,1003.28
2022-11-24T16:41:22.903Z,1003.30
2022-11-24T16:42:22.907Z,1003.32
2022-11-24T16:43:22.881Z,1003.27
2022-11-24T16:44:27.889Z,1003.30
2022-11-24T16:45:22.863Z,1003.31
2022-11-24T16:46:22.943Z,1003.30
2022-11-24T16:47:22.854Z,1003.34
2022-11-24T16:48:22.824Z,1003.33
2022-11-24T16:49:22.827Z,1003.34
2022-11-24T16:50:22.801Z,1003.38
2022-11-24T16:51:22.818Z,1003.32
2022-11-24T16:52:22.802Z,1003.38
2022-11-24T16:53:22.846Z,1003.36
2022-11-24T16:54:22.761Z,1003.34
2022-11-24T16:55:27.790Z,1003.36
2022-11-24T16:56:22.735Z,1003.29
2022-11-24T16:57:22.739Z,1003.27
2022-11-24T16:58:22.711Z,1003.28
2022-11-24T16:59:22.700Z,1003.31
2022-11-24T17:00:22.689Z,1003.27
2022-11-24T17:01:22.766Z,1003.36
2022-11-24T17:02:22.776Z,1003.35
2022-11-24T17:03:22.661Z,1003.33
2022-11-24T17:04:22.642Z,1003.30
2022-11-24T17:05:22.635Z,1003.31
2022-11-24T17:06:27.641Z,1003.32
2022-11-24T17:07:22.706Z,1003.34
2022-11-24T17:08:22.599Z,1003.28
2022-11-24T17:09:22.586Z,1003.31
2022-11-24T17:10:22.577Z,1003.29
2022-11-24T17:11:22.582Z,1003.33
2022-11-24T17:12:22.561Z,1003.31
2022-11-24T17:13:22.545Z,1003.35
2022-11-24T17:14:22.533Z,1003.34
2022-11-24T17:15:33.691Z,1003.36